Time;durP1;ratioP1;P1;durP2;ratioP2;P2;SDS_P1;SDS_P2;PMS_P1;PMS_P2;Temp;Humidity;BMP_temperature;BMP_pressure;BME280_temperature;BME280_humidity;BME280_pressure;Samples;Min_cycle;Max_cycle;Signal;HPM_P1;HPM_P2
2023/01/19 00:01:09;;;;;;;;;;;282.20;2022.40;;;;;;5018904;28;19995;-76
2023/01/19 00:03:35;;;;;;;;;;;282.20;2150.40;;;;;;5037970;28;19921;-76
2023/01/19 00:06:04;;;;;;;;;;;282.20;2201.60;;;;;;5036134;28;19991;-76
2023/01/19 00:08:30;;;;;;;;;;;282.20;2278.40;;;;;;5035002;28;19905;-76
2023/01/19 00:10:56;;;;;;;;;;;282.20;2278.40;;;;;;5016467;28;20003;-76
2023/01/19 00:13:21;;;;;;;;;;;282.30;2022.40;;;;;;5019359;28;20278;-76
2023/01/19 00:15:47;;;;;;;;;;;282.20;2278.40;;;;;;5035266;28;19952;-76
2023/01/19 00:18:12;;;;;;;;;;;282.20;2278.40;;;;;;5036088;28;19928;-76
2023/01/19 00:20:39;;;;;;;;;;;282.20;2278.40;;;;;;5036560;28;19988;-76
2023/01/19 00:23:06;;;;;;;;;;;282.20;2278.40;;;;;;5038185;28;19913;-76
2023/01/19 00:25:31;;;;;;;;;;;282.30;2278.40;;;;;;5037806;28;19909;-76
2023/01/19 00:27:57;;;;;;;;;;;282.30;2278.40;;;;;;5018712;28;19967;-76
2023/01/19 00:30:23;;;;;;;;;;;282.20;2278.40;;;;;;5020587;28;19995;-76
2023/01/19 00:32:48;;;;;;;;;;;282.20;2278.40;;;;;;5037787;28;19909;-76
2023/01/19 00:35:14;;;;;;;;;;;282.20;2278.40;;;;;;5037647;28;19905;-77
2023/01/19 00:37:40;;;;;;;;;;;282.10;2278.40;;;;;;5018810;28;20430;-76
2023/01/19 00:40:06;;;;;;;;;;;282.10;2278.40;;;;;;5019610;28;19913;-76
2023/01/19 00:42:43;;;;;;;;;;;282.00;2278.40;;;;;;5019501;28;20004;-76
2023/01/19 00:45:15;;;;;;;;;;;281.80;2278.40;;;;;;5013180;28;19967;-76
2023/01/19 00:47:40;;;;;;;;;;;281.80;2278.40;;;;;;5036634;28;19905;-76
2023/01/19 00:50:08;;;;;;;;;;;281.80;2278.40;;;;;;5022952;28;19965;-76
2023/01/19 00:52:33;;;;;;;;;;;281.90;2278.40;;;;;;5016204;28;19917;-76
2023/01/19 00:54:59;;;;;;;;;;;281.90;2278.40;;;;;;5036439;28;19992;-76
2023/01/19 00:57:25;;;;;;;;;;;281.90;2278.40;;;;;;5015619;28;19924;-76
2023/01/19 00:59:51;;;;;;;;;;;281.90;2278.40;;;;;;5016806;28;19909;-76
2023/01/19 01:02:17;;;;;;;;;;;282.00;2278.40;;;;;;5033493;28;19909;-76
2023/01/19 01:04:43;;;;;;;;;;;282.00;2278.40;;;;;;5016006;28;20359;-76
2023/01/19 01:07:08;;;;;;;;;;;282.00;2278.40;;;;;;5034233;28;19905;-76
2023/01/19 01:09:34;;;;;;;;;;;282.00;2278.40;;;;;;5033154;28;20330;-76
2023/01/19 01:12:00;;;;;;;;;;;282.00;2278.40;;;;;;5016022;28;19905;-76
2023/01/19 01:14:25;;;;;;;;;;;282.00;2278.40;;;;;;5016352;28;20363;-75
2023/01/19 01:16:51;;;;;;;;;;;282.00;2278.40;;;;;;5015616;28;19941;-76
2023/01/19 01:19:16;;;;;;;;;;;282.00;2278.40;;;;;;5015328;28;20374;-76
2023/01/19 01:21:42;;;;;;;;;;;282.00;2099.20;;;;;;5033459;28;19913;-75
2023/01/19 01:24:08;;;;;;;;;;;282.00;1971.20;;;;;;5033220;28;19913;-76
2023/01/19 01:26:33;;;;;;;;;;;282.00;1920.00;;;;;;5006406;28;20338;-76
2023/01/19 01:28:59;;;;;;;;;;;282.00;2278.40;;;;;;5033307;28;20004;-75
2023/01/19 01:31:25;;;;;;;;;;;282.00;2278.40;;;;;;5017642;28;19916;-76
2023/01/19 01:33:50;;;;;;;;;;;282.00;2278.40;;;;;;5032549;28;19967;-76
2023/01/19 01:36:17;;;;;;;;;;;282.00;2278.40;;;;;;5015683;28;19909;-76
2023/01/19 01:38:43;;;;;;;;;;;282.00;2278.40;;;;;;5033195;28;19916;-76
2023/01/19 01:41:09;;;;;;;;;;;282.10;2278.40;;;;;;5032616;28;19905;-75
2023/01/19 01:44:02;;;;;;;;;;;282.10;2278.40;;;;;;5033359;28;20011;-75
2023/01/19 01:46:29;;;;;;;;;;;282.10;2278.40;;;;;;5028994;28;19913;-75
2023/01/19 01:48:58;;;;;;;;;;;282.10;2278.40;;;;;;5032984;28;19905;-75
2023/01/19 01:51:27;;;;;;;;;;;282.10;2278.40;;;;;;5032792;28;19916;-75
2023/01/19 01:53:53;;;;;;;;;;;282.10;2278.40;;;;;;5032656;28;19913;-75
2023/01/19 01:56:22;;;;;;;;;;;282.10;2278.40;;;;;;5031650;28;20260;-75
2023/01/19 01:58:48;;;;;;;;;;;282.10;2278.40;;;;;;5015134;28;19917;-75
2023/01/19 02:03:58;;;;;;;;;;;282.20;2278.40;;;;;;5032869;28;19928;-75
2023/01/19 02:06:24;;;;;;;;;;;282.20;2278.40;;;;;;5033105;28;19909;-75
2023/01/19 02:14:37;;;;;;;;;;;282.20;2278.40;;;;;;5033217;28;20305;-75
2023/01/19 02:17:04;;;;;;;;;;;282.20;2278.40;;;;;;5015096;28;19909;-75
2023/01/19 02:19:31;;;;;;;;;;;282.20;2278.40;;;;;;5014724;28;20409;-75
2023/01/19 02:22:07;;;;;;;;;;;282.20;2278.40;;;;;;5015071;28;19916;-75
2023/01/19 02:24:33;;;;;;;;;;;282.20;2278.40;;;;;;5021382;28;20004;-75
2023/01/19 02:26:59;;;;;;;;;;;282.20;2278.40;;;;;;5014173;28;19912;-74
2023/01/19 02:29:25;;;;;;;;;;;282.20;2278.40;;;;;;5014878;28;20361;-75
2023/01/19 02:31:51;;;;;;;;;;;282.20;2278.40;;;;;;5015083;28;19991;-75
2023/01/19 02:34:18;;;;;;;;;;;282.20;2278.40;;;;;;5014864;28;19913;-74
2023/01/19 02:36:56;;;;;;;;;;;282.20;2278.40;;;;;;5032967;28;19915;-76
2023/01/19 02:39:27;;;;;;;;;;;282.10;2278.40;;;;;;5032297;28;19905;-75
2023/01/19 02:41:55;;;;;;;;;;;282.10;2278.40;;;;;;5014679;28;19916;-75
2023/01/19 02:44:21;;;;;;;;;;;282.10;2278.40;;;;;;5015368;28;19955;-75
2023/01/19 02:46:47;;;;;;;;;;;282.10;2278.40;;;;;;5014717;28;20367;-75
2023/01/19 02:49:13;;;;;;;;;;;282.10;2278.40;;;;;;5014626;28;20021;-75
2023/01/19 02:51:41;;;;;;;;;;;282.10;2278.40;;;;;;5014530;28;19912;-76
2023/01/19 02:54:26;;;;;;;;;;;282.00;2278.40;;;;;;5014681;28;20421;-75
2023/01/19 02:57:02;;;;;;;;;;;282.00;2278.40;;;;;;5031745;28;19928;-75
2023/01/19 02:59:36;;;;;;;;;;;282.10;2278.40;;;;;;5015118;28;19913;-75
2023/01/19 03:02:10;;;;;;;;;;;282.10;2278.40;;;;;;5016223;28;19905;-75
2023/01/19 03:04:55;;;;;;;;;;;282.10;2278.40;;;;;;5015763;28;19964;-76
2023/01/19 03:07:29;;;;;;;;;;;282.10;2278.40;;;;;;5015321;28;19912;-75
2023/01/19 03:10:02;;;;;;;;;;;282.10;2278.40;;;;;;5018347;28;19995;-75
2023/01/19 03:12:45;;;;;;;;;;;282.10;2278.40;;;;;;5017107;28;19905;-75
2023/01/19 03:15:21;;;;;;;;;;;282.10;2278.40;;;;;;5037157;28;19952;-75
2023/01/19 03:17:48;;;;;;;;;;;282.20;2278.40;;;;;;5040024;28;19905;-75
2023/01/19 03:20:15;;;;;;;;;;;282.20;2278.40;;;;;;5019675;28;19909;-76
2023/01/19 03:22:41;;;;;;;;;;;282.30;2278.40;;;;;;5018464;28;19916;-76
2023/01/19 03:25:07;;;;;;;;;;;282.30;2278.40;;;;;;5017744;28;19913;-75
2023/01/19 03:27:39;;;;;;;;;;;282.30;2278.40;;;;;;5017990;28;19909;-75
2023/01/19 03:30:08;;;;;;;;;;;282.30;2278.40;;;;;;5017962;28;19909;-76
2023/01/19 03:32:39;;;;;;;;;;;282.30;2278.40;;;;;;5017833;28;19916;-75
2023/01/19 03:35:07;;;;;;;;;;;282.30;2278.40;;;;;;5017758;28;19912;-75
2023/01/19 03:37:33;;;;;;;;;;;282.30;2278.40;;;;;;5013586;28;19954;-75
2023/01/19 03:39:59;;;;;;;;;;;282.30;2278.40;;;;;;5012512;28;20340;-75
2023/01/19 03:42:26;;;;;;;;;;;282.30;2278.40;;;;;;5017124;28;19905;-75
2023/01/19 03:44:54;;;;;;;;;;;282.40;2278.40;;;;;;5033805;28;19914;-75
2023/01/19 03:47:20;;;;;;;;;;;282.40;2278.40;;;;;;5036551;28;19911;-75
2023/01/19 03:49:47;;;;;;;;;;;282.40;2278.40;;;;;;5019047;28;20362;-75
2023/01/19 03:52:13;;;;;;;;;;;282.50;2278.40;;;;;;5018218;28;19916;-75
2023/01/19 03:54:39;;;;;;;;;;;282.50;2278.40;;;;;;5017557;28;19905;-75
2023/01/19 03:57:05;;;;;;;;;;;282.50;2278.40;;;;;;5017181;28;19917;-75
2023/01/19 03:59:31;;;;;;;;;;;282.50;2278.40;;;;;;5018007;28;20000;-75
2023/01/19 04:01:56;;;;;;;;;;;282.50;2278.40;;;;;;5018868;28;19904;-75
2023/01/19 04:04:24;;;;;;;;;;;282.50;2278.40;;;;;;5017181;28;19913;-75
2023/01/19 04:06:50;;;;;;;;;;;282.50;2278.40;;;;;;5036522;28;19905;-75
2023/01/19 04:09:15;;;;;;;;;;;282.50;2278.40;;;;;;5017143;28;19954;-75
2023/01/19 04:11:41;;;;;;;;;;;282.50;2278.40;;;;;;5017998;28;20305;-75
2023/01/19 04:14:06;;;;;;;;;;;282.50;2278.40;;;;;;5017336;28;19905;-75
2023/01/19 04:16:32;;;;;;;;;;;282.50;2278.40;;;;;;5017744;28;20376;-75
2023/01/19 04:18:58;;;;;;;;;;;282.50;2278.40;;;;;;5034642;28;19911;-75
2023/01/19 04:21:23;;;;;;;;;;;282.50;2278.40;;;;;;5017164;28;19936;-75
2023/01/19 04:23:49;;;;;;;;;;;282.40;2278.40;;;;;;5017477;28;20007;-75
2023/01/19 04:26:14;;;;;;;;;;;282.40;2278.40;;;;;;5035341;28;20469;-75
2023/01/19 04:28:40;;;;;;;;;;;282.30;2278.40;;;;;;5017319;28;20344;-75
2023/01/19 04:31:06;;;;;;;;;;;282.30;2278.40;;;;;;5012127;28;19906;-75
2023/01/19 04:33:32;;;;;;;;;;;282.30;2278.40;;;;;;5035206;28;19976;-76
2023/01/19 04:35:57;;;;;;;;;;;307.20;2304.00;;;;;;5008818;28;19909;-75
2023/01/19 04:38:24;;;;;;;;;;;282.30;2278.40;;;;;;5017364;28;20337;-75
2023/01/19 04:40:51;;;;;;;;;;;282.30;2278.40;;;;;;5017038;28;19905;-75
2023/01/19 04:43:17;;;;;;;;;;;282.30;2278.40;;;;;;5034739;28;19931;-75
2023/01/19 04:45:43;;;;;;;;;;;282.50;2278.40;;;;;;5009104;28;19909;-76
2023/01/19 04:48:09;;;;;;;;;;;282.40;2278.40;;;;;;5034797;28;19905;-75
2023/01/19 04:50:35;;;;;;;;;;;282.50;2278.40;;;;;;5034738;28;19963;-75
2023/01/19 04:53:00;;;;;;;;;;;282.50;2278.40;;;;;;5034762;28;19916;-75
2023/01/19 04:55:26;;;;;;;;;;;282.50;2278.40;;;;;;5034651;28;19909;-75
2023/01/19 04:57:53;;;;;;;;;;;307.20;2304.00;;;;;;5022346;28;20375;-75
2023/01/19 05:00:19;;;;;;;;;;;307.20;2304.00;;;;;;5034622;28;20390;-75
2023/01/19 05:02:45;;;;;;;;;;;307.20;2304.00;;;;;;5030635;28;20432;-75
2023/01/19 05:05:11;;;;;;;;;;;307.30;2304.00;;;;;;5033195;28;19913;-75
2023/01/19 05:07:37;;;;;;;;;;;307.30;2304.00;;;;;;5033202;28;19904;-75
2023/01/19 05:10:03;;;;;;;;;;;307.30;2304.00;;;;;;5034339;28;19908;-75
2023/01/19 05:12:28;;;;;;;;;;;307.30;2304.00;;;;;;5024622;28;19912;-75
2023/01/19 05:14:54;;;;;;;;;;;307.30;2304.00;;;;;;5033116;28;19996;-75
2023/01/19 05:17:19;;;;;;;;;;;307.30;2304.00;;;;;;5032960;28;19979;-75
2023/01/19 05:19:46;;;;;;;;;;;307.30;2304.00;;;;;;5032827;28;19996;-75
2023/01/19 05:22:12;;;;;;;;;;;307.30;2304.00;;;;;;5034266;28;19910;-75
2023/01/19 05:24:38;;;;;;;;;;;307.30;2304.00;;;;;;5034096;28;19919;-75
2023/01/19 05:27:04;;;;;;;;;;;307.30;2304.00;;;;;;5024605;28;19909;-75
2023/01/19 05:29:29;;;;;;;;;;;307.30;2304.00;;;;;;5024610;28;19906;-75
2023/01/19 05:31:55;;;;;;;;;;;307.40;2304.00;;;;;;5032480;28;19905;-75
2023/01/19 05:34:20;;;;;;;;;;;307.50;2304.00;;;;;;5031787;28;19912;-75
2023/01/19 05:36:46;;;;;;;;;;;307.60;2304.00;;;;;;5032588;28;19905;-75
2023/01/19 05:39:12;;;;;;;;;;;307.60;2304.00;;;;;;5031842;28;19905;-75
2023/01/19 05:41:38;;;;;;;;;;;307.60;2304.00;;;;;;5026289;28;19959;-76
2023/01/19 05:44:04;;;;;;;;;;;307.70;2304.00;;;;;;5053392;28;20370;-75
2023/01/19 05:46:29;;;;;;;;;;;307.70;2304.00;;;;;;5035623;28;20420;-76
2023/01/19 05:48:55;;;;;;;;;;;307.70;2304.00;;;;;;5053191;28;19958;-77
2023/01/19 05:51:20;;;;;;;;;;;307.70;2304.00;;;;;;5053282;28;19916;-77
2023/01/19 05:53:46;;;;;;;;;;;307.70;2304.00;;;;;;5053300;28;19940;-76
2023/01/19 05:56:12;;;;;;;;;;;307.70;2304.00;;;;;;5053162;28;19995;-75
2023/01/19 05:58:40;;;;;;;;;;;307.60;2304.00;;;;;;5053017;28;19916;-76
2023/01/19 06:01:07;;;;;;;;;;;307.40;2304.00;;;;;;5053242;28;19904;-77
2023/01/19 06:03:33;;;;;;;;;;;307.20;2304.00;;;;;;5053057;28;19905;-76
2023/01/19 06:05:59;;;;;;;;;;;307.40;2304.00;;;;;;5035344;28;20004;-76
2023/01/19 06:08:24;;;;;;;;;;;307.40;2304.00;;;;;;5035086;28;20018;-76
2023/01/19 06:10:50;;;;;;;;;;;307.50;2304.00;;;;;;5035257;28;19912;-76
2023/01/19 06:13:16;;;;;;;;;;;307.60;2304.00;;;;;;5035236;28;19905;-76
2023/01/19 06:15:42;;;;;;;;;;;307.60;2304.00;;;;;;5053044;28;20429;-77
2023/01/19 06:18:08;;;;;;;;;;;307.50;2304.00;;;;;;5035138;28;19905;-76
2023/01/19 06:20:34;;;;;;;;;;;307.50;2304.00;;;;;;5052781;28;19913;-76
2023/01/19 06:23:00;;;;;;;;;;;307.40;2304.00;;;;;;5035188;28;19916;-77
2023/01/19 06:25:26;;;;;;;;;;;307.40;2304.00;;;;;;5052775;28;20290;-76
2023/01/19 06:27:51;;;;;;;;;;;307.40;2304.00;;;;;;5034984;28;20373;-76
2023/01/19 06:30:17;;;;;;;;;;;307.30;2304.00;;;;;;5052676;28;19905;-76
2023/01/19 06:32:43;;;;;;;;;;;307.30;2304.00;;;;;;5034934;28;19904;-75
2023/01/19 06:35:08;;;;;;;;;;;282.50;2278.40;;;;;;5033855;28;20404;-76
2023/01/19 06:37:34;;;;;;;;;;;282.50;2278.40;;;;;;5050849;28;19915;-76
2023/01/19 06:40:00;;;;;;;;;;;282.50;2278.40;;;;;;5034307;28;20341;-77
2023/01/19 06:42:26;;;;;;;;;;;282.50;2278.40;;;;;;5035235;28;19909;-77
2023/01/19 06:44:51;;;;;;;;;;;282.40;2278.40;;;;;;5038503;28;19960;-76
2023/01/19 06:47:17;;;;;;;;;;;282.40;2278.40;;;;;;5057037;28;19905;-76
2023/01/19 06:49:42;;;;;;;;;;;282.20;2278.40;;;;;;5056592;28;19916;-75
2023/01/19 06:52:10;;;;;;;;;;;282.20;2278.40;;;;;;5056270;28;19962;-76
2023/01/19 06:54:35;;;;;;;;;;;282.20;2278.40;;;;;;5056564;28;19905;-80
2023/01/19 06:57:01;;;;;;;;;;;282.30;2278.40;;;;;;5038887;28;19950;-81
2023/01/19 06:59:27;;;;;;;;;;;282.40;2278.40;;;;;;5056065;28;19913;-75
2023/01/19 07:01:54;;;;;;;;;;;282.40;2278.40;;;;;;5038382;28;20003;-77
2023/01/19 07:04:20;;;;;;;;;;;282.20;2278.40;;;;;;5038747;28;20260;-77
2023/01/19 07:06:45;;;;;;;;;;;282.00;2278.40;;;;;;5037652;28;19904;-78
2023/01/19 07:09:12;;;;;;;;;;;282.00;2278.40;;;;;;5055853;28;19973;-77
2023/01/19 07:11:37;;;;;;;;;;;282.10;2278.40;;;;;;5055973;28;19908;-77
2023/01/19 07:14:03;;;;;;;;;;;282.00;2278.40;;;;;;5038224;28;20001;-77
2023/01/19 07:16:29;;;;;;;;;;;282.00;2278.40;;;;;;5037858;28;19904;-74
2023/01/19 07:18:55;;;;;;;;;;;282.00;2278.40;;;;;;5056165;28;19952;-76
2023/01/19 07:21:20;;;;;;;;;;;282.00;2278.40;;;;;;5038138;28;20294;-75
2023/01/19 07:23:52;;;;;;;;;;;281.90;2278.40;;;;;;5037841;28;20359;-76
2023/01/19 07:26:20;;;;;;;;;;;281.80;2278.40;;;;;;5056065;28;19905;-76
2023/01/19 07:28:48;;;;;;;;;;;281.80;2278.40;;;;;;5033298;28;20305;-76
2023/01/19 07:31:14;;;;;;;;;;;281.80;2278.40;;;;;;5037327;28;19909;-77
2023/01/19 07:33:40;;;;;;;;;;;281.80;1894.40;;;;;;5038304;28;19920;-77
2023/01/19 07:36:05;;;;;;;;;;;281.80;2201.60;;;;;;5037821;28;19905;-77
2023/01/19 07:38:31;;;;;;;;;;;281.80;2150.40;;;;;;5038056;28;20375;-79
2023/01/19 07:41:00;;;;;;;;;;;281.90;1920.00;;;;;;5038801;28;19904;-80
2023/01/19 07:43:26;;;;;;;;;;;281.90;2048.00;;;;;;5037604;28;20006;-80
2023/01/19 07:45:54;;;;;;;;;;;281.90;2022.40;;;;;;5036335;28;20007;-80
2023/01/19 07:48:20;;;;;;;;;;;281.90;1971.20;;;;;;5055353;28;19905;-82
2023/01/19 07:50:45;;;;;;;;;;;281.90;2278.40;;;;;;5047145;28;20035;-81
2023/01/19 07:53:11;;;;;;;;;;;282.00;2278.40;;;;;;5056133;28;19908;-79
2023/01/19 07:55:36;;;;;;;;;;;282.00;2278.40;;;;;;5055282;28;20837;-75
2023/01/19 07:58:06;;;;;;;;;;;282.10;2278.40;;;;;;5037583;28;19927;-77
2023/01/19 08:00:32;;;;;;;;;;;282.10;2278.40;;;;;;5055768;28;19919;-77
2023/01/19 08:02:59;;;;;;;;;;;282.30;2278.40;;;;;;5055350;28;20321;-73
2023/01/19 08:05:25;;;;;;;;;;;282.30;2278.40;;;;;;5055484;28;19917;-78
2023/01/19 08:07:51;;;;;;;;;;;282.30;2278.40;;;;;;5055612;28;20403;-78
2023/01/19 08:10:17;;;;;;;;;;;282.30;2278.40;;;;;;5055383;28;19905;-80
2023/01/19 08:12:43;;;;;;;;;;;282.30;2278.40;;;;;;5037781;28;19999;-75
2023/01/19 08:15:09;;;;;;;;;;;282.30;2278.40;;;;;;5037857;28;20357;-81
2023/01/19 08:17:35;;;;;;;;;;;282.40;2278.40;;;;;;5055069;28;20278;-77
2023/01/19 08:20:01;;;;;;;;;;;282.50;2278.40;;;;;;5055267;28;19909;-79
2023/01/19 08:22:26;;;;;;;;;;;282.50;2278.40;;;;;;5055999;28;20363;-79
2023/01/19 08:24:53;;;;;;;;;;;307.20;2304.00;;;;;;5055139;28;19952;-78
2023/01/19 08:27:19;;;;;;;;;;;282.50;2278.40;;;;;;5037397;28;19912;-79
2023/01/19 08:29:44;;;;;;;;;;;307.20;2304.00;;;;;;5036804;28;19904;-82
2023/01/19 08:32:10;;;;;;;;;;;282.50;2278.40;;;;;;5037407;28;19997;-79
2023/01/19 08:34:36;;;;;;;;;;;307.20;2304.00;;;;;;5055406;28;19905;-77
2023/01/19 08:37:01;;;;;;;;;;;307.20;2304.00;;;;;;5054261;28;19908;-79
2023/01/19 08:39:27;;;;;;;;;;;307.30;2304.00;;;;;;5031619;28;19904;-79
2023/01/19 08:41:53;;;;;;;;;;;307.30;2304.00;;;;;;5054942;28;19909;-80
2023/01/19 08:44:18;;;;;;;;;;;307.30;2304.00;;;;;;5034667;28;19913;-80
2023/01/19 08:46:44;;;;;;;;;;;307.30;2304.00;;;;;;5033178;28;19915;-78
2023/01/19 08:49:10;;;;;;;;;;;307.30;2304.00;;;;;;5036809;28;19911;-76
2023/01/19 08:51:35;;;;;;;;;;;307.30;2304.00;;;;;;5036250;28;19912;-80
2023/01/19 08:54:01;;;;;;;;;;;307.30;2304.00;;;;;;5037006;28;19909;-78
2023/01/19 08:56:26;;;;;;;;;;;307.30;2304.00;;;;;;5036628;28;20374;-79
2023/01/19 08:58:52;;;;;;;;;;;307.30;2304.00;;;;;;5029331;28;20283;-79
2023/01/19 09:01:19;;;;;;;;;;;307.40;2304.00;;;;;;5054412;28;19950;-79
2023/01/19 09:03:45;;;;;;;;;;;307.40;2304.00;;;;;;5044844;28;19975;-78
2023/01/19 09:06:13;;;;;;;;;;;307.60;2304.00;;;;;;5034423;28;19909;-79
2023/01/19 09:08:39;;;;;;;;;;;307.60;2304.00;;;;;;5036470;28;19904;-79
2023/01/19 09:11:09;;;;;;;;;;;307.70;2304.00;;;;;;5053365;28;19954;-78
2023/01/19 09:13:35;;;;;;;;;;;307.80;2304.00;;;;;;5027334;28;19905;-79
2023/01/19 09:16:02;;;;;;;;;;;307.90;2304.00;;;;;;5036582;28;20286;-84
2023/01/19 09:18:28;;;;;;;;;;;307.90;2304.00;;;;;;5036686;28;20381;-79
2023/01/19 09:20:56;;;;;;;;;;;307.80;2304.00;;;;;;5036501;28;19959;-81
2023/01/19 09:23:22;;;;;;;;;;;307.80;2304.00;;;;;;5054768;28;19913;-80
2023/01/19 09:25:47;;;;;;;;;;;307.80;2304.00;;;;;;5036581;28;19913;-80
2023/01/19 09:28:15;;;;;;;;;;;307.80;2304.00;;;;;;5049463;28;20324;-77
2023/01/19 09:30:41;;;;;;;;;;;307.90;2304.00;;;;;;5035878;28;20275;-77
2023/01/19 09:33:11;;;;;;;;;;;308.00;2304.00;;;;;;5035381;28;19909;-76
2023/01/19 09:35:37;;;;;;;;;;;308.00;2304.00;;;;;;5054183;28;19905;-78
2023/01/19 09:38:03;;;;;;;;;;;308.00;2304.00;;;;;;5054200;28;19904;-84
2023/01/19 09:40:29;;;;;;;;;;;308.00;2304.00;;;;;;5054413;28;19912;-79
2023/01/19 09:42:58;;;;;;;;;;;307.90;2304.00;;;;;;5054335;28;20350;-78
2023/01/19 09:45:26;;;;;;;;;;;307.90;2304.00;;;;;;5053875;28;19913;-80
2023/01/19 09:47:52;;;;;;;;;;;307.90;2304.00;;;;;;5053883;28;19904;-79
2023/01/19 09:50:29;;;;;;;;;;;308.00;2304.00;;;;;;5032088;28;19917;-79
2023/01/19 09:52:56;;;;;;;;;;;308.10;2304.00;;;;;;5042479;28;19959;-78
2023/01/19 09:55:24;;;;;;;;;;;308.10;2304.00;;;;;;5032500;28;19905;-79
2023/01/19 09:57:50;;;;;;;;;;;308.10;2304.00;;;;;;5051294;28;19966;-78
2023/01/19 10:00:15;;;;;;;;;;;332.80;2329.60;;;;;;5035171;28;19904;-78
2023/01/19 10:02:43;;;;;;;;;;;332.90;2329.60;;;;;;5035068;28;19958;-78
2023/01/19 10:05:27;;;;;;;;;;;333.30;2329.60;;;;;;5052785;28;19955;-77
2023/01/19 10:08:22;;;;;;;;;;;333.60;2329.60;;;;;;5035007;28;20375;-77
2023/01/19 10:10:51;;;;;;;;;;;358.50;2329.60;;;;;;5006863;28;19944;-77
2023/01/19 10:13:17;;;;;;;;;;;358.60;2329.60;;;;;;5031735;28;19908;-76
2023/01/19 10:16:02;;;;;;;;;;;358.80;2329.60;;;;;;5052627;28;20314;-76
2023/01/19 10:18:38;;;;;;;;;;;358.90;2329.60;;;;;;5051796;28;19904;-75
2023/01/19 10:21:09;;;;;;;;;;;359.00;2329.60;;;;;;5052450;28;20294;-79
2023/01/19 10:23:35;;;;;;;;;;;358.90;2329.60;;;;;;5034286;28;19995;-77
2023/01/19 10:26:04;;;;;;;;;;;358.80;2329.60;;;;;;5035290;28;20016;-79
2023/01/19 10:28:30;;;;;;;;;;;359.10;2329.60;;;;;;5034107;28;19904;-78
2023/01/19 10:30:56;;;;;;;;;;;359.20;2329.60;;;;;;5034933;28;19905;-80
2023/01/19 10:33:22;;;;;;;;;;;384.00;2329.60;;;;;;5035058;28;19911;-78
2023/01/19 10:35:47;;;;;;;;;;;384.30;2329.60;;;;;;5034848;28;19905;-77
2023/01/19 10:38:14;;;;;;;;;;;384.20;2329.60;;;;;;5034976;28;19954;-77
2023/01/19 10:40:51;;;;;;;;;;;384.00;2329.60;;;;;;5032203;28;19905;-77
2023/01/19 10:43:35;;;;;;;;;;;359.30;2329.60;;;;;;5034923;28;20274;-76
2023/01/19 10:46:04;;;;;;;;;;;384.30;2329.60;;;;;;5034763;28;19913;-77
2023/01/19 10:48:36;;;;;;;;;;;384.90;2329.60;;;;;;5033769;28;20025;-77
2023/01/19 10:51:03;;;;;;;;;;;409.90;2355.20;;;;;;5034865;28;19963;-77
2023/01/19 10:53:28;;;;;;;;;;;409.90;2355.20;;;;;;5052741;28;19956;-78
2023/01/19 10:56:09;;;;;;;;;;;409.60;2355.20;;;;;;5034694;28;19950;-78
2023/01/19 10:58:35;;;;;;;;;;;384.90;2329.60;;;;;;5030813;28;19921;-78
2023/01/19 11:01:12;;;;;;;;;;;384.70;2329.60;;;;;;5052150;28;19905;-79
2023/01/19 11:03:38;;;;;;;;;;;384.90;2329.60;;;;;;5052948;28;20434;-78
2023/01/19 11:06:14;;;;;;;;;;;410.00;2355.20;;;;;;5034703;28;19962;-78
2023/01/19 11:08:40;;;;;;;;;;;410.20;2355.20;;;;;;5045379;28;20354;-75
2023/01/19 11:11:09;;;;;;;;;;;409.70;2355.20;;;;;;5052544;28;19991;-84
2023/01/19 11:13:35;;;;;;;;;;;410.00;2355.20;;;;;;5035135;28;19908;-77
2023/01/19 11:16:05;;;;;;;;;;;435.20;2355.20;;;;;;5033901;28;19908;-76
2023/01/19 11:18:32;;;;;;;;;;;435.20;2355.20;;;;;;5032324;28;20386;-77
2023/01/19 11:21:06;;;;;;;;;;;435.40;2355.20;;;;;;5052141;28;19912;-75
2023/01/19 11:23:33;;;;;;;;;;;435.60;2355.20;;;;;;5047755;28;19909;-75
2023/01/19 11:26:03;;;;;;;;;;;435.80;2355.20;;;;;;5033784;28;19972;-78
2023/01/19 11:28:31;;;;;;;;;;;435.80;2355.20;;;;;;5034392;28;19912;-77
2023/01/19 11:31:14;;;;;;;;;;;436.00;2304.00;;;;;;5033498;28;19923;-77
2023/01/19 11:33:46;;;;;;;;;;;435.90;2355.20;;;;;;5054376;28;19927;-77
2023/01/19 11:36:21;;;;;;;;;;;435.60;2355.20;;;;;;5035511;28;20379;-75
2023/01/19 11:38:53;;;;;;;;;;;435.40;2355.20;;;;;;5055470;28;19951;-78
2023/01/19 11:41:27;;;;;;;;;;;435.40;2355.20;;;;;;5049090;28;19913;-77
2023/01/19 11:43:57;;;;;;;;;;;435.20;2355.20;;;;;;5051785;28;19962;-77
2023/01/19 11:46:23;;;;;;;;;;;435.30;2355.20;;;;;;5055538;28;19923;-75
2023/01/19 11:49:01;;;;;;;;;;;435.20;2355.20;;;;;;5055595;28;19971;-76
2023/01/19 11:51:29;;;;;;;;;;;410.50;2355.20;;;;;;5037423;28;19912;-78
2023/01/19 11:53:54;;;;;;;;;;;410.50;2355.20;;;;;;5037370;28;19916;-78
2023/01/19 11:56:27;;;;;;;;;;;410.20;2355.20;;;;;;5055481;28;20282;-77
2023/01/19 11:58:52;;;;;;;;;;;409.90;2355.20;;;;;;5023448;28;20051;-84
2023/01/19 12:01:20;;;;;;;;;;;409.60;2355.20;;;;;;5037267;28;19944;-90
2023/01/19 12:03:50;;;;;;;;;;;409.70;2355.20;;;;;;5038577;28;19911;-82
2023/01/19 12:06:19;;;;;;;;;;;409.60;2355.20;;;;;;5038022;28;19932;-81
2023/01/19 12:08:52;;;;;;;;;;;409.70;2355.20;;;;;;5038085;28;19983;-79
2023/01/19 12:11:22;;;;;;;;;;;409.90;2355.20;;;;;;5047972;28;19912;-82
2023/01/19 12:13:48;;;;;;;;;;;409.70;2355.20;;;;;;5037062;28;19995;-85
2023/01/19 12:16:18;;;;;;;;;;;384.70;2329.60;;;;;;5035861;28;19995;-85
2023/01/19 12:18:46;;;;;;;;;;;384.70;2329.60;;;;;;5037692;28;19975;-86
2023/01/19 12:21:12;;;;;;;;;;;384.50;2329.60;;;;;;5055338;28;19908;-82
2023/01/19 12:23:56;;;;;;;;;;;384.20;2329.60;;;;;;5034748;28;19919;-79
2023/01/19 12:26:32;;;;;;;;;;;384.00;2329.60;;;;;;5055384;28;20417;-80
2023/01/19 12:29:09;;;;;;;;;;;359.10;2329.60;;;;;;5054853;28;19950;-82
2023/01/19 12:31:36;;;;;;;;;;;358.80;2329.60;;;;;;5026020;28;19905;-82
2023/01/19 12:34:21;;;;;;;;;;;358.70;2329.60;;;;;;5055462;28;19928;-80
2023/01/19 12:36:47;;;;;;;;;;;358.80;2329.60;;;;;;5025971;28;19986;-80
2023/01/19 12:39:18;;;;;;;;;;;358.80;2329.60;;;;;;5037722;28;19972;-80
2023/01/19 12:41:45;;;;;;;;;;;358.70;2329.60;;;;;;5037537;28;19952;-81
2023/01/19 12:44:12;;;;;;;;;;;358.50;2329.60;;;;;;5038135;28;19931;-82
2023/01/19 12:46:40;;;;;;;;;;;333.50;2329.60;;;;;;5037370;28;19951;-77
2023/01/19 12:49:25;;;;;;;;;;;333.00;2329.60;;;;;;5036118;28;19905;-76
2023/01/19 12:51:52;;;;;;;;;;;308.10;2304.00;;;;;;5051491;28;20338;-76
2023/01/19 12:54:31;;;;;;;;;;;307.90;2304.00;;;;;;5054139;28;19920;-77
2023/01/19 12:57:17;;;;;;;;;;;307.50;2304.00;;;;;;5035928;28;20423;-77
2023/01/19 12:59:42;;;;;;;;;;;307.30;2304.00;;;;;;5032244;28;19913;-77
2023/01/19 13:02:24;;;;;;;;;;;282.50;2278.40;;;;;;5035967;28;19916;-77
2023/01/19 13:05:08;;;;;;;;;;;282.30;2278.40;;;;;;5054487;28;20371;-76
2023/01/19 13:07:52;;;;;;;;;;;282.20;2278.40;;;;;;5035260;28;19912;-76
2023/01/19 13:10:36;;;;;;;;;;;282.20;2278.40;;;;;;5029748;28;19955;-76
2023/01/19 13:13:16;;;;;;;;;;;281.80;2278.40;;;;;;5034209;28;19963;-76
2023/01/19 13:15:43;;;;;;;;;;;281.70;2278.40;;;;;;5035826;28;19958;-77
2023/01/19 13:18:15;;;;;;;;;;;281.70;2278.40;;;;;;5035537;28;19913;-77
2023/01/19 13:21:01;;;;;;;;;;;281.60;2278.40;;;;;;5035957;28;19909;-78
2023/01/19 13:23:27;;;;;;;;;;;281.60;2278.40;;;;;;5052813;28;20382;-78
2023/01/19 13:26:04;;;;;;;;;;;281.60;2278.40;;;;;;5033005;28;19917;-76
2023/01/19 13:28:31;;;;;;;;;;;281.70;2278.40;;;;;;5035593;28;19908;-78
2023/01/19 13:30:58;;;;;;;;;;;256.90;2252.80;;;;;;5033802;28;21624;-78
2023/01/19 13:33:25;;;;;;;;;;;281.60;2278.40;;;;;;5031301;28;19904;-77
2023/01/19 13:35:52;;;;;;;;;;;281.60;2278.40;;;;;;5034931;28;20355;-76
2023/01/19 13:38:18;;;;;;;;;;;256.80;2252.80;;;;;;5053611;28;19904;-78
2023/01/19 13:40:44;;;;;;;;;;;256.90;2252.80;;;;;;5035901;28;20278;-76
2023/01/19 13:43:15;;;;;;;;;;;256.90;2252.80;;;;;;5052821;28;20377;-76
2023/01/19 13:45:45;;;;;;;;;;;256.80;2252.80;;;;;;5034963;28;19919;-77
2023/01/19 13:48:13;;;;;;;;;;;256.70;2252.80;;;;;;5029300;28;19905;-77
2023/01/19 13:50:39;;;;;;;;;;;256.80;2252.80;;;;;;5035192;28;19932;-77
2023/01/19 13:53:19;;;;;;;;;;;256.70;2252.80;;;;;;5053146;28;20298;-77
2023/01/19 13:55:46;;;;;;;;;;;256.70;2252.80;;;;;;5033552;28;19908;-77